Time;durP1;ratioP1;P1;durP2;ratioP2;P2;SDS_P1;SDS_P2;PMS_P1;PMS_P2;Temp;Humidity;BMP_temperature;BMP_pressure;BME280_temperature;BME280_humidity;BME280_pressure;Samples;Min_cycle;Max_cycle;Signal;HPM_P1;HPM_P2
2022/01/28 00:00:18;;;;;;;17.48;3.28;;;4.50;99.90;;;;;;4934256;28;20168;-89
2022/01/28 00:05:16;;;;;;;21.23;3.03;;;4.40;99.90;;;;;;4945241;28;20049;-89
2022/01/28 00:07:42;;;;;;;20.77;3.38;;;4.50;99.90;;;;;;4923883;28;20470;-89
2022/01/28 00:10:08;;;;;;;21.85;3.20;;;4.60;99.90;;;;;;4923227;28;20279;-90
2022/01/28 00:12:37;;;;;;;19.30;3.80;;;4.60;99.90;;;;;;4944195;28;20541;-89
2022/01/28 00:15:17;;;;;;;21.50;3.33;;;4.60;99.90;;;;;;4942270;28;20052;-90
2022/01/28 00:37:25;;;;;;;14.23;2.50;;;4.60;99.90;;;;;;4934891;28;20049;-90
2022/01/28 00:39:28;;;;;;;16.67;2.75;;;4.60;99.90;;;;;;4944039;28;20060;-88
2022/01/28 00:41:54;;;;;;;15.60;2.25;;;4.60;99.90;;;;;;4920010;28;20478;-88
2022/01/28 00:44:20;;;;;;;15.82;2.55;;;4.50;99.90;;;;;;4910677;28;20045;-87
2022/01/28 00:46:45;;;;;;;18.35;2.72;;;4.50;99.90;;;;;;4928016;28;20404;-89
2022/01/28 00:49:11;;;;;;;17.10;2.90;;;4.40;99.90;;;;;;4942695;28;20646;-88
2022/01/28 00:51:37;;;;;;;17.50;2.60;;;4.50;99.90;;;;;;4926574;28;20331;-89
2022/01/28 00:54:03;;;;;;;11.30;2.10;;;4.50;99.90;;;;;;4927670;28;20239;-89
2022/01/28 00:56:28;;;;;;;16.70;2.72;;;4.40;99.90;;;;;;4937918;28;20099;-88
2022/01/28 00:58:54;;;;;;;14.25;2.95;;;4.40;99.90;;;;;;4910481;28;20119;-89
2022/01/28 01:01:20;;;;;;;20.30;3.47;;;4.40;99.90;;;;;;4938894;28;20045;-89
2022/01/28 01:03:46;;;;;;;17.23;2.47;;;4.40;99.90;;;;;;4937011;28;20053;-88
2022/01/28 01:06:12;;;;;;;18.20;2.80;;;4.40;99.90;;;;;;4919932;28;20056;-88
2022/01/28 01:08:37;;;;;;;18.00;2.40;;;4.50;99.90;;;;;;4937708;28;20045;-89
2022/01/28 01:11:05;;;;;;;15.68;2.72;;;4.50;99.90;;;;;;4920994;28;20107;-88
2022/01/28 01:13:35;;;;;;;17.23;2.33;;;4.60;99.90;;;;;;4923179;28;20049;-89
2022/01/28 01:16:02;;;;;;;17.17;2.45;;;4.70;99.90;;;;;;4922451;28;20341;-90
2022/01/28 01:18:36;;;;;;;17.90;3.13;;;4.70;99.90;;;;;;4954229;28;20099;-88
2022/01/28 01:21:07;;;;;;;17.55;2.50;;;4.60;99.90;;;;;;4937590;28;20080;-88
2022/01/28 01:23:39;;;;;;;16.20;2.70;;;4.60;99.90;;;;;;4934141;28;20659;-89
2022/01/28 01:26:12;;;;;;;21.63;3.38;;;4.50;99.90;;;;;;4927566;28;20292;-89
2022/01/28 01:28:40;;;;;;;11.77;2.40;;;4.50;99.90;;;;;;4910386;28;20297;-87
2022/01/28 01:31:11;;;;;;;18.48;2.65;;;4.40;99.90;;;;;;4940345;28;20114;-89
2022/01/28 01:33:43;;;;;;;14.95;2.72;;;4.50;99.90;;;;;;4937800;28;20046;-88
2022/01/28 01:36:09;;;;;;;24.08;3.10;;;4.40;99.90;;;;;;4927150;28;20102;-91
2022/01/28 01:38:38;;;;;;;19.77;3.15;;;4.40;99.90;;;;;;4910686;28;20899;-89
2022/01/28 01:41:09;;;;;;;20.38;3.10;;;4.30;99.90;;;;;;4929982;28;20468;-89
2022/01/28 01:52:03;;;;;;;23.25;3.72;;;4.20;99.90;;;;;;4927029;28;20080;-88
2022/01/28 01:54:34;;;;;;;20.08;2.97;;;4.20;99.90;;;;;;4907220;28;20056;-89
2022/01/28 01:57:00;;;;;;;20.70;3.30;;;4.30;99.90;;;;;;4942497;28;20041;-90
2022/01/28 01:59:26;;;;;;;19.95;3.17;;;4.30;99.90;;;;;;4940487;28;20466;-89
2022/01/28 02:01:56;;;;;;;20.60;3.88;;;4.30;99.90;;;;;;4888863;28;20086;-89
2022/01/28 02:04:22;;;;;;;22.40;2.95;;;4.40;99.90;;;;;;4943545;28;20059;-89
2022/01/28 02:06:48;;;;;;;24.83;3.97;;;4.40;99.90;;;;;;4909666;28;20533;-90
2022/01/28 02:09:13;;;;;;;18.00;3.47;;;4.50;99.90;;;;;;4908625;28;20045;-89
2022/01/28 02:11:42;;;;;;;26.55;3.45;;;4.50;99.90;;;;;;4925187;28;20499;-88
2022/01/28 02:14:09;;;;;;;19.83;3.40;;;4.50;99.90;;;;;;4938026;28;20398;-89
2022/01/28 02:16:35;;;;;;;19.52;3.10;;;4.50;99.90;;;;;;4905304;28;20551;-89
2022/01/28 02:19:01;;;;;;;17.42;3.17;;;4.50;99.90;;;;;;4944455;28;20041;-89
2022/01/28 02:21:27;;;;;;;18.48;2.95;;;4.50;99.90;;;;;;4954353;28;20064;-88
2022/01/28 02:23:59;;;;;;;21.23;3.10;;;4.60;99.90;;;;;;4936195;28;22028;-88
2022/01/28 02:26:25;;;;;;;21.52;2.63;;;4.70;99.90;;;;;;4923470;28;20084;-88
2022/01/28 02:28:55;;;;;;;13.88;2.60;;;4.70;99.90;;;;;;4938469;28;20102;-87
2022/01/28 02:31:27;;;;;;;16.60;2.50;;;4.80;99.90;;;;;;4938029;28;20118;-87
2022/01/28 02:33:56;;;;;;;13.45;2.42;;;5.00;99.90;;;;;;4907544;28;20096;-88
2022/01/28 02:36:22;;;;;;;18.40;3.78;;;5.00;99.90;;;;;;4921126;28;20093;-88
2022/01/28 02:38:47;;;;;;;20.73;3.97;;;5.20;99.90;;;;;;4922836;28;20041;-88
2022/01/28 02:41:13;;;;;;;18.15;2.90;;;5.20;99.90;;;;;;4938176;28;20080;-89
2022/01/28 02:43:57;;;;;;;18.23;2.83;;;5.10;99.90;;;;;;4912496;28;20087;-89
2022/01/28 02:46:25;;;;;;;17.25;2.53;;;5.10;99.90;;;;;;4910470;28;20574;-87
2022/01/28 02:48:55;;;;;;;17.77;2.97;;;5.10;99.90;;;;;;4936106;28;20097;-87
2022/01/28 02:51:22;;;;;;;20.58;3.67;;;5.10;99.90;;;;;;4923268;28;20052;-88
2022/01/28 02:53:57;;;;;;;18.02;3.47;;;5.00;99.90;;;;;;4939574;28;20794;-88
2022/01/28 02:58:56;;;;;;;18.52;2.78;;;5.10;99.90;;;;;;4950951;28;20071;-88
2022/01/28 03:01:22;;;;;;;19.70;3.83;;;5.00;99.90;;;;;;4909637;28;20282;-89
2022/01/28 03:03:50;;;;;;;20.15;3.30;;;5.10;99.90;;;;;;4923355;28;20045;-89
2022/01/28 03:06:19;;;;;;;18.50;3.17;;;5.10;99.90;;;;;;4924215;28;20523;-89
2022/01/28 03:08:58;;;;;;;18.88;2.95;;;5.10;99.90;;;;;;4922102;28;20486;-88
2022/01/28 03:16:29;;;;;;;20.02;3.78;;;5.00;99.90;;;;;;4934149;28;20089;-87
2022/01/28 03:18:59;;;;;;;21.10;3.88;;;5.00;99.90;;;;;;4938283;28;20045;-89
2022/01/28 03:23:51;;;;;;;16.42;2.80;;;4.80;99.90;;;;;;4934847;28;20080;-89
2022/01/28 03:26:17;;;;;;;17.27;3.10;;;4.90;99.90;;;;;;4939741;28;20123;-89
2022/01/28 03:28:43;;;;;;;16.70;3.22;;;4.80;99.90;;;;;;4917730;28;20049;-88
2022/01/28 03:31:09;;;;;;;21.35;3.15;;;4.80;99.90;;;;;;4934921;28;20629;-87
2022/01/28 03:33:35;;;;;;;19.17;3.00;;;4.70;99.90;;;;;;4932485;28;20053;-88
2022/01/28 03:36:08;;;;;;;13.85;2.50;;;4.70;99.90;;;;;;4921479;28;20048;-89
2022/01/28 03:38:34;;;;;;;18.07;2.83;;;4.70;99.90;;;;;;4925073;28;20379;-88
2022/01/28 03:41:00;;;;;;;16.75;2.72;;;4.70;99.90;;;;;;4914129;28;20049;-89
2022/01/28 03:43:26;;;;;;;19.75;3.00;;;4.70;99.90;;;;;;4918385;28;20091;-88
2022/01/28 03:45:52;;;;;;;21.05;3.28;;;4.70;99.90;;;;;;4902299;28;20041;-87
2022/01/28 03:48:18;;;;;;;19.38;3.10;;;4.70;99.90;;;;;;4937692;28;20367;-88
2022/01/28 03:50:44;;;;;;;23.08;4.20;;;4.70;99.90;;;;;;4886151;28;20302;-87
2022/01/28 03:53:10;;;;;;;19.52;3.40;;;4.60;99.90;;;;;;4937293;28;20402;-87
2022/01/28 03:55:36;;;;;;;22.00;3.65;;;4.60;99.90;;;;;;4923048;28;20039;-88
2022/01/28 03:58:03;;;;;;;23.02;3.03;;;4.60;99.90;;;;;;4917059;28;23240;-90
2022/01/28 04:00:31;;;;;;;16.42;2.88;;;4.50;99.90;;;;;;4939344;28;20545;-89
2022/01/28 04:03:59;;;;;;;19.80;2.88;;;4.50;99.90;;;;;;4937963;28;20047;-89
2022/01/28 04:11:46;;;;;;;19.25;3.28;;;4.40;99.90;;;;;;4892449;28;20303;-90
2022/01/28 04:14:25;;;;;;;17.17;3.35;;;4.40;99.90;;;;;;4934161;28;20824;-89
2022/01/28 04:19:33;;;;;;;22.85;3.53;;;4.30;99.90;;;;;;4940870;28;20045;-89
2022/01/28 04:22:00;;;;;;;21.00;3.78;;;4.30;99.90;;;;;;4951367;28;20054;-88
2022/01/28 04:24:25;;;;;;;24.88;3.45;;;4.30;99.90;;;;;;4942323;28;20045;-89
2022/01/28 04:26:51;;;;;;;24.20;3.97;;;4.20;99.90;;;;;;4904846;28;20057;-89
2022/01/28 04:29:17;;;;;;;24.58;3.78;;;4.30;99.90;;;;;;4921127;28;20040;-89
2022/01/28 04:31:46;;;;;;;21.75;3.67;;;4.30;99.90;;;;;;4934961;28;20090;-89
2022/01/28 04:34:16;;;;;;;26.60;4.18;;;4.40;99.90;;;;;;4944108;28;20081;-90
2022/01/28 04:39:45;;;;;;;25.00;3.77;;;4.40;99.90;;;;;;4937557;28;20781;-89
2022/01/28 04:42:18;;;;;;;25.00;4.25;;;4.40;99.90;;;;;;4922157;28;20103;-89
2022/01/28 04:45:04;;;;;;;28.25;3.95;;;4.40;99.90;;;;;;4902479;28;20749;-88
2022/01/28 05:28:50;;;;;;;23.10;3.80;;;4.80;99.90;;;;;;4947103;28;20410;-88
2022/01/28 05:31:17;;;;;;;25.65;4.50;;;4.70;99.90;;;;;;4933923;28;22000;-87
2022/01/28 05:33:43;;;;;;;20.58;3.38;;;4.70;99.90;;;;;;4911012;28;20524;-88
2022/01/28 05:36:09;;;;;;;26.65;3.72;;;4.70;99.90;;;;;;4949843;28;21075;-88
2022/01/28 05:38:35;;;;;;;20.88;3.85;;;4.60;99.90;;;;;;4901733;28;20049;-88
2022/01/28 05:41:01;;;;;;;24.83;4.90;;;4.60;99.90;;;;;;4924923;28;20129;-88
2022/01/28 05:43:26;;;;;;;21.13;4.05;;;4.50;99.90;;;;;;4919122;28;20476;-88
2022/01/28 05:45:52;;;;;;;22.42;4.25;;;4.40;99.90;;;;;;4933927;28;20037;-88
2022/01/28 05:48:20;;;;;;;24.90;4.40;;;4.40;99.90;;;;;;4919386;28;20044;-87
2022/01/28 05:50:46;;;;;;;19.58;3.80;;;4.40;99.90;;;;;;4931667;28;20970;-89
2022/01/28 05:53:12;;;;;;;21.95;4.30;;;4.30;99.90;;;;;;4905169;28;20053;-87
2022/01/28 05:55:38;;;;;;;18.63;3.70;;;4.20;99.90;;;;;;4924425;28;20751;-89
2022/01/28 05:58:04;;;;;;;23.67;3.85;;;4.20;99.90;;;;;;4955198;28;20427;-89
2022/01/28 06:00:30;;;;;;;30.05;4.25;;;4.30;99.90;;;;;;4938148;28;20462;-87
2022/01/28 06:02:56;;;;;;;25.48;4.72;;;4.20;99.90;;;;;;4938651;28;20055;-88
2022/01/28 06:05:22;;;;;;;22.88;3.65;;;4.20;99.90;;;;;;4902907;28;20553;-88
2022/01/28 06:07:48;;;;;;;25.33;4.32;;;4.20;99.90;;;;;;4919568;28;20159;-88
2022/01/28 06:10:17;;;;;;;22.63;3.60;;;4.20;99.90;;;;;;4924894;28;20581;-88
2022/01/28 06:12:46;;;;;;;28.65;4.13;;;4.30;99.90;;;;;;4924988;28;20041;-87
2022/01/28 06:15:12;;;;;;;23.83;3.50;;;4.40;99.90;;;;;;4930125;28;20044;-90
2022/01/28 06:17:38;;;;;;;28.02;3.85;;;4.30;99.90;;;;;;4934010;28;20072;-88
2022/01/28 06:20:06;;;;;;;21.55;3.78;;;4.30;99.90;;;;;;4959415;28;20052;-87
2022/01/28 06:22:36;;;;;;;24.83;4.35;;;4.40;99.90;;;;;;4948171;28;20053;-87
2022/01/28 06:25:02;;;;;;;23.85;4.15;;;4.30;99.90;;;;;;4923082;28;20049;-88
2022/01/28 06:27:30;;;;;;;24.40;4.05;;;4.30;99.90;;;;;;4942076;28;20832;-87
2022/01/28 06:29:56;;;;;;;24.55;4.63;;;4.20;99.90;;;;;;4950462;28;20758;-87
2022/01/28 06:32:22;;;;;;;25.83;4.32;;;4.30;99.90;;;;;;4951346;28;20103;-87
2022/01/28 06:34:48;;;;;;;22.77;4.72;;;4.30;99.90;;;;;;4954629;28;20898;-88
2022/01/28 06:37:16;;;;;;;30.42;4.60;;;4.50;99.90;;;;;;4954449;28;20417;-87
2022/01/28 06:39:42;;;;;;;22.60;4.18;;;4.60;99.90;;;;;;4943501;28;21936;-87
2022/01/28 06:42:08;;;;;;;24.10;4.03;;;4.70;99.90;;;;;;4933556;28;20057;-87
2022/01/28 06:44:34;;;;;;;23.48;4.15;;;4.70;99.90;;;;;;4953137;28;20057;-88
2022/01/28 06:47:00;;;;;;;24.58;4.20;;;4.70;99.90;;;;;;4929756;28;20053;-86
2022/01/28 06:49:26;;;;;;;28.05;3.72;;;4.70;99.90;;;;;;4951399;28;20052;-89
2022/01/28 06:51:52;;;;;;;26.40;4.40;;;4.70;99.90;;;;;;4932486;28;20477;-88
2022/01/28 06:54:17;;;;;;;28.77;4.70;;;4.70;99.90;;;;;;4910241;28;20077;-87
2022/01/28 06:56:44;;;;;;;26.02;4.32;;;4.80;99.90;;;;;;4929041;28;20354;-88
2022/01/28 06:59:11;;;;;;;27.30;4.30;;;4.80;99.90;;;;;;4929953;28;20051;-89
2022/01/28 07:01:37;;;;;;;33.53;5.30;;;4.70;99.90;;;;;;4941104;28;20049;-88
2022/01/28 07:04:03;;;;;;;27.85;4.45;;;4.80;99.90;;;;;;4926639;28;20149;-88
2022/01/28 07:06:29;;;;;;;28.40;4.60;;;4.80;99.90;;;;;;4912189;28;20061;-89
2022/01/28 07:08:58;;;;;;;22.42;4.85;;;4.80;99.90;;;;;;4918523;28;20056;-89
2022/01/28 07:11:24;;;;;;;27.00;4.18;;;4.80;99.90;;;;;;4937193;28;20529;-88
2022/01/28 07:13:49;;;;;;;27.52;4.30;;;4.80;99.90;;;;;;4924586;28;20045;-88
2022/01/28 07:16:15;;;;;;;21.40;4.03;;;4.80;99.90;;;;;;4913683;28;20478;-86
2022/01/28 07:18:41;;;;;;;26.13;4.38;;;4.70;99.90;;;;;;4933719;28;20133;-87
2022/01/28 07:21:07;;;;;;;23.90;4.45;;;4.80;99.90;;;;;;4918377;28;20051;-89
2022/01/28 07:23:32;;;;;;;21.80;4.78;;;4.80;99.90;;;;;;4919161;28;20043;-85
2022/01/28 07:25:58;;;;;;;21.48;3.85;;;4.90;99.90;;;;;;4947822;28;20123;-87
2022/01/28 07:28:26;;;;;;;25.85;4.97;;;4.90;99.90;;;;;;4922456;28;20123;-87
2022/01/28 07:30:52;;;;;;;26.80;4.20;;;4.90;99.90;;;;;;4938919;28;20325;-88
2022/01/28 07:33:18;;;;;;;26.77;4.40;;;4.80;99.90;;;;;;4926943;28;20896;-89
2022/01/28 07:35:44;;;;;;;23.67;3.70;;;4.70;99.90;;;;;;4905849;28;20604;-91
2022/01/28 07:38:10;;;;;;;27.27;5.18;;;4.80;99.90;;;;;;4938315;28;20124;-88
2022/01/28 07:40:36;;;;;;;25.75;3.95;;;4.70;99.90;;;;;;4940394;28;20380;-88
2022/01/28 07:43:02;;;;;;;21.55;3.97;;;4.60;99.90;;;;;;4946135;28;20045;-87
2022/01/28 07:45:28;;;;;;;25.23;5.10;;;4.50;99.90;;;;;;4942174;28;20815;-88
2022/01/28 07:47:54;;;;;;;29.48;4.82;;;4.50;99.90;;;;;;4907950;28;20056;-87
2022/01/28 07:50:20;;;;;;;29.67;4.60;;;4.40;99.90;;;;;;4940226;28;20052;-87
2022/01/28 07:52:46;;;;;;;28.83;4.93;;;4.30;99.90;;;;;;4939322;28;20044;-88
2022/01/28 07:55:14;;;;;;;30.02;4.68;;;4.30;99.90;;;;;;4924456;28;20037;-88
2022/01/28 07:57:41;;;;;;;26.40;4.35;;;4.30;99.90;;;;;;4922176;28;20489;-88
2022/01/28 08:00:09;;;;;;;24.20;5.57;;;4.30;99.90;;;;;;4939498;28;20482;-88
2022/01/28 08:02:35;;;;;;;22.17;4.25;;;4.30;99.90;;;;;;4926044;28;20053;-87
2022/01/28 08:05:01;;;;;;;27.98;4.80;;;4.20;99.90;;;;;;4943135;28;20049;-88
2022/01/28 08:07:27;;;;;;;27.90;4.22;;;4.20;99.90;;;;;;4939292;28;20520;-87
2022/01/28 08:09:53;;;;;;;33.75;5.35;;;4.20;99.90;;;;;;4917398;28;20041;-89
2022/01/28 08:12:19;;;;;;;23.05;4.15;;;4.20;99.90;;;;;;4920578;28;20112;-87
2022/01/28 08:14:45;;;;;;;31.65;5.50;;;4.10;99.90;;;;;;4921626;28;20127;-87
2022/01/28 08:17:11;;;;;;;25.67;4.70;;;4.10;99.90;;;;;;4916107;28;20037;-87
2022/01/28 08:19:38;;;;;;;26.55;4.60;;;4.10;99.90;;;;;;4936888;28;20041;-88
2022/01/28 08:22:04;;;;;;;26.85;4.00;;;4.10;99.90;;;;;;4939279;28;20052;-87
2022/01/28 08:24:30;;;;;;;23.13;4.50;;;4.20;99.90;;;;;;4933809;28;20546;-89
2022/01/28 08:26:56;;;;;;;26.65;4.22;;;4.30;99.90;;;;;;4922983;28;20418;-87
2022/01/28 08:29:23;;;;;;;22.70;4.18;;;4.40;99.90;;;;;;4925587;28;20045;-90
2022/01/28 08:31:50;;;;;;;28.33;5.85;;;4.50;99.90;;;;;;4941725;28;20037;-87
2022/01/28 08:34:16;;;;;;;26.55;4.85;;;4.60;99.90;;;;;;4947506;28;20465;-87
2022/01/28 08:36:42;;;;;;;22.55;3.90;;;4.80;99.90;;;;;;4943193;28;20033;-88
2022/01/28 08:39:10;;;;;;;21.85;4.15;;;4.90;99.90;;;;;;4942940;28;20199;-89
2022/01/28 08:41:38;;;;;;;29.95;5.80;;;5.00;99.90;;;;;;4925180;28;20441;-88
2022/01/28 08:44:05;;;;;;;24.02;3.85;;;5.00;99.90;;;;;;4938851;28;20850;-87
2022/01/28 08:46:31;;;;;;;27.65;3.88;;;5.00;99.90;;;;;;4941829;28;20044;-88
2022/01/28 08:48:57;;;;;;;22.08;4.00;;;5.10;99.90;;;;;;4907575;28;20723;-87
2022/01/28 08:51:24;;;;;;;27.52;4.60;;;5.10;99.90;;;;;;4940639;28;20136;-87
2022/01/28 08:53:50;;;;;;;27.08;4.63;;;5.10;99.90;;;;;;4937310;28;20762;-89
2022/01/28 08:56:15;;;;;;;23.15;4.10;;;5.20;99.90;;;;;;4924754;28;20770;-88
2022/01/28 08:58:41;;;;;;;20.02;4.13;;;5.20;99.90;;;;;;4901811;28;20076;-88
2022/01/28 09:01:08;;;;;;;22.02;4.15;;;5.40;99.90;;;;;;4937899;28;20055;-88
2022/01/28 09:03:34;;;;;;;24.08;4.03;;;5.40;99.90;;;;;;4936635;28;20308;-86
2022/01/28 09:06:00;;;;;;;23.33;4.18;;;5.40;99.90;;;;;;4932669;28;20231;-89
2022/01/28 09:08:26;;;;;;;25.48;3.92;;;5.40;99.90;;;;;;4921339;28;20053;-87
2022/01/28 09:11:08;;;;;;;28.45;4.80;;;5.50;99.90;;;;;;4912411;28;20495;-88
2022/01/28 09:13:39;;;;;;;25.48;4.13;;;5.60;99.90;;;;;;4939096;28;20045;-87
2022/01/28 09:16:05;;;;;;;19.50;3.92;;;5.60;99.90;;;;;;4927959;28;20711;-89
2022/01/28 09:18:31;;;;;;;21.35;4.45;;;5.70;99.90;;;;;;4929350;28;20498;-90
2022/01/28 09:20:57;;;;;;;27.25;5.35;;;5.80;99.90;;;;;;4930934;28;20103;-87
2022/01/28 09:23:23;;;;;;;23.55;3.88;;;5.80;99.90;;;;;;4949964;28;20044;-88
2022/01/28 09:25:49;;;;;;;26.80;5.10;;;5.90;99.90;;;;;;4962434;28;20564;-89
2022/01/28 09:28:18;;;;;;;24.70;4.75;;;6.00;99.90;;;;;;4960817;28;20049;-89
2022/01/28 09:30:43;;;;;;;25.45;4.57;;;6.10;99.90;;;;;;4959994;28;20120;-89
2022/01/28 09:33:10;;;;;;;27.70;4.80;;;6.20;99.90;;;;;;4930929;28;20601;-89
2022/01/28 09:35:37;;;;;;;21.00;4.45;;;6.20;99.90;;;;;;4950656;28;20054;-86
2022/01/28 09:38:04;;;;;;;25.80;4.43;;;6.20;99.90;;;;;;4949320;28;20501;-89
2022/01/28 09:40:30;;;;;;;25.42;4.65;;;6.30;99.90;;;;;;4935848;28;20434;-88
2022/01/28 09:42:56;;;;;;;26.27;4.82;;;6.40;99.90;;;;;;4937380;28;20683;-87
2022/01/28 09:45:24;;;;;;;22.00;4.18;;;6.50;99.90;;;;;;4897753;28;20045;-87
2022/01/28 09:47:53;;;;;;;25.33;4.60;;;6.70;99.90;;;;;;4920805;28;20272;-89
2022/01/28 09:50:24;;;;;;;27.77;4.63;;;6.70;99.90;;;;;;4938354;28;20099;-88
2022/01/28 09:52:51;;;;;;;20.50;4.22;;;7.00;99.90;;;;;;4946431;28;20506;-88
2022/01/28 09:55:18;;;;;;;21.55;4.28;;;7.20;99.90;;;;;;4956341;28;20470;-87
2022/01/28 09:57:47;;;;;;;23.92;4.43;;;7.30;99.90;;;;;;4945964;28;20418;-89
2022/01/28 10:00:13;;;;;;;25.85;4.60;;;7.40;99.90;;;;;;4954703;28;20152;-89
2022/01/28 10:03:03;;;;;;;25.85;4.57;;;7.60;99.90;;;;;;4946845;28;20041;-87
2022/01/28 10:05:37;;;;;;;23.38;4.93;;;7.80;99.90;;;;;;4927193;28;20060;-86
2022/01/28 10:08:23;;;;;;;37.00;4.80;;;7.80;99.90;;;;;;4918794;28;20045;-87
2022/01/28 10:10:49;;;;;;;28.95;4.63;;;7.80;99.90;;;;;;4948263;28;20413;-88
2022/01/28 10:13:21;;;;;;;26.65;4.53;;;7.70;99.90;;;;;;4938737;28;20049;-88
2022/01/28 10:16:07;;;;;;;24.20;4.00;;;7.60;99.90;;;;;;4940952;28;20079;-88
2022/01/28 10:18:37;;;;;;;25.30;4.30;;;7.50;99.90;;;;;;4938187;28;20486;-90
2022/01/28 10:21:32;;;;;;;21.40;3.88;;;7.60;99.90;;;;;;4936907;28;20133;-88
2022/01/28 10:24:09;;;;;;;21.10;3.90;;;7.50;99.90;;;;;;4919147;28;20779;-87
2022/01/28 10:26:39;;;;;;;27.10;4.10;;;7.50;99.90;;;;;;4933813;28;20096;-88
2022/01/28 10:29:16;;;;;;;22.27;4.18;;;7.40;99.90;;;;;;4932567;28;20550;-88
2022/01/28 10:32:00;;;;;;;23.33;4.32;;;7.50;99.90;;;;;;4943024;28;20487;-88
2022/01/28 10:34:29;;;;;;;;;;;7.50;99.90;;;;;;4934687;28;20207;-87
2022/01/28 10:37:17;;;;;;;29.27;4.40;;;7.40;99.90;;;;;;4936976;28;19928;-87
2022/01/28 10:39:50;;;;;;;22.92;4.28;;;7.40;99.90;;;;;;4935588;28;20049;-88
2022/01/28 10:42:36;;;;;;;24.17;4.00;;;7.40;99.90;;;;;;4956216;28;20067;-87
2022/01/28 10:45:09;;;;;;;24.95;4.63;;;7.40;99.90;;;;;;4954728;28;20538;-88
2022/01/28 10:47:38;;;;;;;18.85;4.20;;;7.40;99.90;;;;;;4924188;28;20041;-89
2022/01/28 10:50:23;;;;;;;23.92;4.45;;;7.50;99.90;;;;;;4959255;28;20511;-88
2022/01/28 10:52:58;;;;;;;27.40;4.22;;;7.60;99.90;;;;;;4933239;28;20418;-86
2022/01/28 10:55:23;;;;;;;19.58;3.78;;;7.50;99.90;;;;;;4921675;28;20053;-87
2022/01/28 10:58:01;;;;;;;22.52;4.18;;;7.50;99.90;;;;;;4934714;28;20147;-87
2022/01/28 11:00:31;;;;;;;19.27;3.30;;;7.60;99.90;;;;;;4938612;28;20496;-87
2022/01/28 11:02:59;;;;;;;26.27;4.22;;;7.50;99.90;;;;;;4942566;28;20049;-88
2022/01/28 11:05:27;;;;;;;21.75;4.32;;;7.60;99.90;;;;;;4945284;28;20053;-87
2022/01/28 11:07:54;;;;;;;25.45;4.47;;;7.60;99.90;;;;;;4960310;28;20056;-86
2022/01/28 11:10:20;;;;;;;25.33;3.95;;;7.70;99.90;;;;;;4904430;28;20660;-90
2022/01/28 11:12:46;;;;;;;24.90;4.45;;;7.70;99.90;;;;;;4955955;28;20052;-86
2022/01/28 11:15:12;;;;;;;24.50;4.07;;;7.80;99.90;;;;;;4938386;28;20633;-87
2022/01/28 11:17:40;;;;;;;21.60;4.38;;;7.80;99.90;;;;;;4906190;28;20049;-90
2022/01/28 11:20:11;;;;;;;26.95;4.13;;;7.80;99.90;;;;;;4947917;28;20045;-91
2022/01/28 11:22:43;;;;;;;22.55;4.30;;;8.00;99.90;;;;;;4921009;28;20943;-91
2022/01/28 11:25:27;;;;;;;23.23;4.40;;;8.20;99.90;;;;;;4943099;28;20969;-90
2022/01/28 11:27:53;;;;;;;22.15;3.92;;;8.50;99.90;;;;;;4961771;28;20424;-90
2022/01/28 11:30:25;;;;;;;24.00;5.45;;;8.50;99.90;;;;;;4933903;28;20076;-89
2022/01/28 11:33:00;;;;;;;27.15;4.60;;;8.50;99.90;;;;;;4935887;28;20825;-87
2022/01/28 11:35:37;;;;;;;18.20;3.88;;;8.60;99.90;;;;;;4936390;28;20186;-89
2022/01/28 11:38:26;;;;;;;21.55;3.75;;;8.60;99.90;;;;;;4933735;28;20955;-88
2022/01/28 11:41:07;;;;;;;24.63;4.13;;;8.50;99.90;;;;;;4941525;28;20100;-90
2022/01/28 11:43:34;;;;;;;25.60;4.40;;;8.30;99.90;;;;;;4963032;28;20045;-91
2022/01/28 11:46:20;;;;;;;24.15;4.05;;;8.30;99.90;;;;;;4960546;28;20444;-88
2022/01/28 11:48:52;;;;;;;24.52;4.60;;;8.50;99.90;;;;;;4949659;28;20041;-87
2022/01/28 11:51:23;;;;;;;22.85;3.72;;;8.60;99.90;;;;;;4941192;28;20049;-90
2022/01/28 11:53:57;;;;;;;26.95;4.90;;;8.70;99.90;;;;;;4923889;28;20772;-88
2022/01/28 11:56:24;;;;;;;26.15;4.00;;;8.70;99.90;;;;;;4951695;28;20057;-89
2022/01/28 11:59:05;;;;;;;20.67;3.97;;;8.70;99.90;;;;;;4917328;28;20053;-88
2022/01/28 12:01:40;;;;;;;19.27;3.88;;;8.70;99.90;;;;;;4955535;28;20133;-88
2022/01/28 12:04:24;;;;;;;22.92;4.22;;;8.50;99.90;;;;;;4925544;28;20045;-87
2022/01/28 12:06:59;;;;;;;23.85;4.45;;;8.30;99.90;;;;;;4936110;28;20048;-87
2022/01/28 12:09:26;;;;;;;24.83;4.45;;;8.10;99.90;;;;;;4966155;28;20056;-88
2022/01/28 12:11:52;;;;;;;28.13;3.75;;;7.80;99.90;;;;;;4943072;28;20626;-88
2022/01/28 12:14:19;;;;;;;21.77;4.70;;;7.80;99.90;;;;;;4941767;28;20556;-89
2022/01/28 12:16:46;;;;;;;20.83;3.78;;;7.70;99.90;;;;;;4907883;28;20049;-88
2022/01/28 12:19:21;;;;;;;24.92;4.10;;;7.80;99.90;;;;;;4938930;28;20525;-87
2022/01/28 12:22:09;;;;;;;23.67;4.35;;;7.70;99.90;;;;;;4943262;28;20726;-87
2022/01/28 12:24:38;;;;;;;29.92;4.38;;;7.60;99.90;;;;;;4937727;28;20081;-88
2022/01/28 12:27:05;;;;;;;23.98;4.38;;;7.70;99.90;;;;;;4937068;28;20041;-87
2022/01/28 12:29:33;;;;;;;20.75;4.22;;;7.60;99.90;;;;;;4933290;28;20135;-87
2022/01/28 12:32:00;;;;;;;20.05;3.75;;;8.00;99.90;;;;;;4950216;28;20334;-87
2022/01/28 12:34:26;;;;;;;26.45;4.63;;;7.90;99.90;;;;;;4942448;28;20935;-87
2022/01/28 12:36:57;;;;;;;21.10;4.10;;;8.00;99.90;;;;;;4936965;28;20053;-88
2022/01/28 12:39:36;;;;;;;23.75;4.40;;;8.30;99.90;;;;;;4937507;28;20045;-86
2022/01/28 12:42:07;;;;;;;21.45;4.57;;;8.20;99.90;;;;;;4939050;28;20053;-87
2022/01/28 12:44:35;;;;;;;21.02;4.00;;;8.20;99.90;;;;;;4950442;28;20147;-87
2022/01/28 12:47:09;;;;;;;21.20;4.65;;;8.00;99.90;;;;;;4941067;28;20791;-87
2022/01/28 12:49:36;;;;;;;22.67;3.95;;;8.00;99.90;;;;;;4953766;28;20038;-88
2022/01/28 12:52:06;;;;;;;23.98;4.97;;;7.90;99.90;;;;;;4940516;28;20044;-86
2022/01/28 12:54:36;;;;;;;22.88;4.10;;;7.90;99.90;;;;;;4948162;28;20084;-86
2022/01/28 12:57:04;;;;;;;22.27;4.63;;;8.00;99.90;;;;;;4940675;28;20037;-90
2022/01/28 12:59:30;;;;;;;21.70;4.22;;;8.00;99.90;;;;;;4943341;28;20037;-85
2022/01/28 13:01:57;;;;;;;19.08;4.05;;;8.00;99.90;;;;;;4933784;28;20057;-85
2022/01/28 13:04:36;;;;;;;17.77;3.40;;;7.90;99.90;;;;;;4933979;28;20760;-89
2022/01/28 13:09:49;;;;;;;20.40;3.58;;;7.80;99.90;;;;;;4935413;28;20475;-87
2022/01/28 13:12:29;;;;;;;20.40;3.47;;;7.70;99.90;;;;;;4937893;28;20057;-88
2022/01/28 13:15:03;;;;;;;20.48;3.80;;;7.60;99.90;;;;;;4958116;28;20416;-87
2022/01/28 13:17:29;;;;;;;21.42;3.88;;;7.70;99.90;;;;;;4941206;28;20044;-86
2022/01/28 13:20:05;;;;;;;21.25;3.83;;;7.80;99.90;;;;;;4937922;28;20431;-88
2022/01/28 13:22:32;;;;;;;23.98;3.70;;;7.70;99.90;;;;;;4959722;28;20060;-88
2022/01/28 13:24:59;;;;;;;23.75;3.30;;;7.80;99.90;;;;;;4935036;28;20084;-89
2022/01/28 13:27:44;;;;;;;20.95;3.72;;;8.00;99.90;;;;;;4938551;28;20510;-88
2022/01/28 13:30:14;;;;;;;20.08;3.95;;;8.00;99.90;;;;;;4918124;28;20474;-88
2022/01/28 13:32:45;;;;;;;18.90;3.78;;;8.30;99.90;;;;;;4922567;28;20538;-87
2022/01/28 13:35:20;;;;;;;23.23;4.18;;;8.30;99.90;;;;;;4940541;28;20045;-88
2022/01/28 13:37:55;;;;;;;26.25;4.38;;;8.70;99.90;;;;;;4918216;28;20453;-87
2022/01/28 13:40:21;;;;;;;19.17;4.00;;;8.70;99.90;;;;;;4954635;28;20052;-87
2022/01/28 13:43:13;;;;;;;25.00;4.53;;;8.60;99.90;;;;;;4939403;28;20456;-87
2022/01/28 13:45:43;;;;;;;20.00;3.40;;;8.40;99.90;;;;;;4937571;28;20876;-87
2022/01/28 13:48:15;;;;;;;22.33;4.15;;;8.30;99.90;;;;;;4936874;28;20067;-87
2022/01/28 13:50:43;;;;;;;20.58;3.92;;;8.10;99.90;;;;;;4906667;28;20789;-88
2022/01/28 13:56:02;;;;;;;22.25;4.57;;;8.10;99.90;;;;;;4933571;28;20568;-87
2022/01/28 13:58:29;;;;;;;20.23;4.60;;;8.10;99.90;;;;;;4915596;28;20137;-87
2022/01/28 14:00:56;;;;;;;19.90;4.10;;;8.00;99.90;;;;;;4930239;28;20425;-87
2022/01/28 14:03:26;;;;;;;23.50;4.05;;;7.90;99.90;;;;;;4942117;28;20485;-87
2022/01/28 14:05:56;;;;;;;22.27;4.07;;;7.90;99.90;;;;;;4936739;28;20416;-89
2022/01/28 14:08:41;;;;;;;21.10;4.00;;;7.80;99.90;;;;;;4937362;28;20158;-87
2022/01/28 14:11:33;;;;;;;21.85;4.68;;;7.80;99.90;;;;;;4932082;28;20124;-88
2022/01/28 14:14:30;;;;;;;22.75;4.65;;;8.00;99.90;;;;;;4915353;28;20068;-87
2022/01/28 14:17:07;;;;;;;19.35;4.25;;;8.10;99.90;;;;;;4905375;28;20115;-87
2022/01/28 14:19:35;;;;;;;25.30;3.80;;;8.00;99.90;;;;;;4921607;28;20033;-89
2022/01/28 14:22:02;;;;;;;32.78;5.03;;;8.00;99.90;;;;;;4926119;28;20049;-85
2022/01/28 14:24:30;;;;;;;21.42;4.00;;;8.00;99.90;;;;;;4958344;28;20587;-89
2022/01/28 14:32:05;;;;;;;22.65;4.57;;;7.90;99.90;;;;;;4920486;28;20135;-87
2022/01/28 14:34:31;;;;;;;18.33;3.38;;;7.90;99.90;;;;;;4939550;28;20057;-87
2022/01/28 14:36:57;;;;;;;25.70;3.83;;;7.80;99.90;;;;;;4920783;28;20946;-87
2022/01/28 14:39:23;;;;;;;24.33;3.45;;;7.80;99.90;;;;;;4953099;28;20048;-87
2022/01/28 14:41:50;;;;;;;19.95;3.88;;;7.70;99.90;;;;;;4915610;28;20243;-86